sensor_id;sensor_type;location;lat;lon;timestamp;pressure;altitude;pressure_sealevel;temperature;humidity
3748;BME280;1889;50.058;8.688;2023-12-29T00:01:18;100114.95;;;11.56;85.68
3748;BME280;1889;50.058;8.688;2023-12-29T00:03:48;100115.80;;;11.77;84.67
3748;BME280;1889;50.058;8.688;2023-12-29T00:06:17;100105.10;;;11.64;84.23
3748;BME280;1889;50.058;8.688;2023-12-29T00:08:46;100104.72;;;11.82;84.36
3748;BME280;1889;50.058;8.688;2023-12-29T00:11:20;100090.06;;;11.68;84.25
3748;BME280;1889;50.058;8.688;2023-12-29T00:13:50;100090.39;;;11.73;83.64
3748;BME280;1889;50.058;8.688;2023-12-29T00:16:19;100080.95;;;11.63;84.31
3748;BME280;1889;50.058;8.688;2023-12-29T00:18:48;100089.91;;;11.56;84.31
3748;BME280;1889;50.058;8.688;2023-12-29T00:21:18;100097.59;;;11.46;84.99
3748;BME280;1889;50.058;8.688;2023-12-29T00:23:47;100091.81;;;11.50;84.89
3748;BME280;1889;50.058;8.688;2023-12-29T00:26:17;100087.84;;;11.51;84.40
3748;BME280;1889;50.058;8.688;2023-12-29T00:28:47;100088.11;;;11.58;83.95
3748;BME280;1889;50.058;8.688;2023-12-29T00:31:16;100093.32;;;11.60;83.75
3748;BME280;1889;50.058;8.688;2023-12-29T00:33:46;100083.14;;;11.64;82.69
3748;BME280;1889;50.058;8.688;2023-12-29T00:36:16;100082.39;;;11.59;82.05
3748;BME280;1889;50.058;8.688;2023-12-29T00:38:46;100081.63;;;11.52;82.36
3748;BME280;1889;50.058;8.688;2023-12-29T00:41:15;100074.80;;;11.43;82.31
3748;BME280;1889;50.058;8.688;2023-12-29T00:43:44;100077.50;;;11.60;81.67
3748;BME280;1889;50.058;8.688;2023-12-29T00:46:14;100069.94;;;11.65;81.46
3748;BME280;1889;50.058;8.688;2023-12-29T00:48:46;100067.57;;;11.34;80.66
3748;BME280;1889;50.058;8.688;2023-12-29T00:51:16;100064.84;;;11.37;82.16
3748;BME280;1889;50.058;8.688;2023-12-29T00:53:45;100069.13;;;11.22;82.26
3748;BME280;1889;50.058;8.688;2023-12-29T00:56:15;100062.94;;;11.43;81.57
3748;BME280;1889;50.058;8.688;2023-12-29T00:58:44;100056.33;;;11.45;81.00
3748;BME280;1889;50.058;8.688;2023-12-29T01:01:13;100057.28;;;11.22;81.53
3748;BME280;1889;50.058;8.688;2023-12-29T01:03:43;100059.30;;;11.30;81.81
3748;BME280;1889;50.058;8.688;2023-12-29T01:06:12;100063.00;;;11.21;82.15
3748;BME280;1889;50.058;8.688;2023-12-29T01:08:41;100063.11;;;11.36;80.93
3748;BME280;1889;50.058;8.688;2023-12-29T01:11:11;100065.24;;;11.39;81.15
3748;BME280;1889;50.058;8.688;2023-12-29T01:13:40;100065.13;;;11.25;80.57
3748;BME280;1889;50.058;8.688;2023-12-29T01:16:09;100056.64;;;11.31;81.07
3748;BME280;1889;50.058;8.688;2023-12-29T01:18:39;100053.33;;;11.42;80.59
3748;BME280;1889;50.058;8.688;2023-12-29T01:21:08;100045.55;;;11.56;79.94
3748;BME280;1889;50.058;8.688;2023-12-29T01:23:37;100042.79;;;11.60;79.39
3748;BME280;1889;50.058;8.688;2023-12-29T01:26:07;100037.22;;;11.75;78.37
3748;BME280;1889;50.058;8.688;2023-12-29T01:28:36;100035.70;;;11.64;77.98
3748;BME280;1889;50.058;8.688;2023-12-29T01:31:05;100040.09;;;11.63;78.53
3748;BME280;1889;50.058;8.688;2023-12-29T01:33:36;100031.26;;;11.46;78.54
3748;BME280;1889;50.058;8.688;2023-12-29T01:36:06;100029.49;;;11.66;78.09
3748;BME280;1889;50.058;8.688;2023-12-29T01:38:35;100031.73;;;11.64;77.39
3748;BME280;1889;50.058;8.688;2023-12-29T01:41:04;100031.05;;;11.56;77.43
3748;BME280;1889;50.058;8.688;2023-12-29T01:43:34;100030.63;;;11.55;77.62
3748;BME280;1889;50.058;8.688;2023-12-29T01:46:03;100036.70;;;11.39;77.95
3748;BME280;1889;50.058;8.688;2023-12-29T01:48:33;100031.89;;;11.58;77.82
3748;BME280;1889;50.058;8.688;2023-12-29T01:51:02;100028.15;;;11.48;77.94
3748;BME280;1889;50.058;8.688;2023-12-29T01:53:32;100031.80;;;11.61;77.39
3748;BME280;1889;50.058;8.688;2023-12-29T01:56:01;100026.41;;;11.67;77.06
3748;BME280;1889;50.058;8.688;2023-12-29T01:58:30;100028.38;;;11.76;76.44
3748;BME280;1889;50.058;8.688;2023-12-29T02:01:01;100027.61;;;11.52;76.27
3748;BME280;1889;50.058;8.688;2023-12-29T02:03:31;100024.94;;;11.54;76.44
3748;BME280;1889;50.058;8.688;2023-12-29T02:06:02;100030.81;;;11.47;76.26
3748;BME280;1889;50.058;8.688;2023-12-29T02:08:31;100026.17;;;11.58;75.79
3748;BME280;1889;50.058;8.688;2023-12-29T02:11:01;100026.47;;;11.64;75.97
3748;BME280;1889;50.058;8.688;2023-12-29T02:13:31;100022.96;;;11.63;75.48
3748;BME280;1889;50.058;8.688;2023-12-29T02:18:55;100024.23;;;11.84;74.86
3748;BME280;1889;50.058;8.688;2023-12-29T02:21:26;100014.27;;;11.97;73.70
3748;BME280;1889;50.058;8.688;2023-12-29T02:23:55;100010.80;;;11.95;73.94
3748;BME280;1889;50.058;8.688;2023-12-29T02:26:27;100009.83;;;11.99;73.53
3748;BME280;1889;50.058;8.688;2023-12-29T02:28:59;100004.97;;;11.82;72.91
3748;BME280;1889;50.058;8.688;2023-12-29T02:31:31;100006.73;;;11.81;73.61
3748;BME280;1889;50.058;8.688;2023-12-29T02:34:03;100005.00;;;11.98;73.01
3748;BME280;1889;50.058;8.688;2023-12-29T02:36:34;100006.80;;;11.96;72.52
3748;BME280;1889;50.058;8.688;2023-12-29T02:39:06;100005.13;;;11.92;72.67
3748;BME280;1889;50.058;8.688;2023-12-29T02:41:36;100016.67;;;11.88;72.62
3748;BME280;1889;50.058;8.688;2023-12-29T02:44:06;100008.88;;;11.64;72.73
3748;BME280;1889;50.058;8.688;2023-12-29T02:46:35;100003.13;;;11.66;73.18
3748;BME280;1889;50.058;8.688;2023-12-29T02:49:05;100008.25;;;11.72;73.10
3748;BME280;1889;50.058;8.688;2023-12-29T02:51:36;100014.75;;;11.77;72.52
3748;BME280;1889;50.058;8.688;2023-12-29T02:54:05;100019.09;;;11.79;72.27
3748;BME280;1889;50.058;8.688;2023-12-29T02:56:35;100024.07;;;11.53;73.03
3748;BME280;1889;50.058;8.688;2023-12-29T02:59:04;100015.18;;;11.59;73.28
3748;BME280;1889;50.058;8.688;2023-12-29T03:01:34;100018.53;;;11.65;72.96
3748;BME280;1889;50.058;8.688;2023-12-29T03:04:03;100013.05;;;11.55;72.78
3748;BME280;1889;50.058;8.688;2023-12-29T03:06:33;100018.38;;;11.52;73.37
3748;BME280;1889;50.058;8.688;2023-12-29T03:09:02;100024.31;;;11.62;73.07
3748;BME280;1889;50.058;8.688;2023-12-29T03:11:31;100014.09;;;11.67;73.11
3748;BME280;1889;50.058;8.688;2023-12-29T03:14:00;100026.20;;;11.57;72.75
3748;BME280;1889;50.058;8.688;2023-12-29T03:16:30;100016.05;;;11.59;73.26
3748;BME280;1889;50.058;8.688;2023-12-29T03:18:59;100018.80;;;11.53;73.31
3748;BME280;1889;50.058;8.688;2023-12-29T03:21:28;100007.96;;;11.47;73.56
3748;BME280;1889;50.058;8.688;2023-12-29T03:23:58;100013.56;;;11.34;73.88
3748;BME280;1889;50.058;8.688;2023-12-29T03:26:27;100019.33;;;11.30;74.15
3748;BME280;1889;50.058;8.688;2023-12-29T03:28:56;100009.87;;;11.41;74.03
3748;BME280;1889;50.058;8.688;2023-12-29T03:31:26;100008.62;;;11.57;73.84
3748;BME280;1889;50.058;8.688;2023-12-29T03:33:55;100005.98;;;11.38;73.84
3748;BME280;1889;50.058;8.688;2023-12-29T03:36:24;100003.70;;;11.60;73.79
3748;BME280;1889;50.058;8.688;2023-12-29T03:38:53;99991.27;;;11.66;73.45
3748;BME280;1889;50.058;8.688;2023-12-29T03:41:23;99986.77;;;11.70;72.60
3748;BME280;1889;50.058;8.688;2023-12-29T03:43:52;99989.00;;;11.32;72.98
3748;BME280;1889;50.058;8.688;2023-12-29T03:46:22;99972.66;;;11.35;72.99
3748;BME280;1889;50.058;8.688;2023-12-29T03:48:52;99960.34;;;11.55;72.79
3748;BME280;1889;50.058;8.688;2023-12-29T03:51:21;99968.44;;;11.47;72.42
3748;BME280;1889;50.058;8.688;2023-12-29T03:53:50;99972.67;;;11.53;72.09
3748;BME280;1889;50.058;8.688;2023-12-29T03:56:20;99970.30;;;11.60;72.34
3748;BME280;1889;50.058;8.688;2023-12-29T03:58:49;99964.30;;;11.74;72.00
3748;BME280;1889;50.058;8.688;2023-12-29T04:01:18;99973.52;;;11.36;72.59
3748;BME280;1889;50.058;8.688;2023-12-29T04:03:48;99965.31;;;11.50;72.88
3748;BME280;1889;50.058;8.688;2023-12-29T04:06:17;99959.08;;;11.52;72.56
3748;BME280;1889;50.058;8.688;2023-12-29T04:08:46;99955.41;;;11.41;72.56
3748;BME280;1889;50.058;8.688;2023-12-29T04:11:16;99959.97;;;11.35;72.68
3748;BME280;1889;50.058;8.688;2023-12-29T04:13:45;99961.55;;;11.42;72.78
3748;BME280;1889;50.058;8.688;2023-12-29T04:16:14;99954.57;;;11.39;72.70
3748;BME280;1889;50.058;8.688;2023-12-29T04:18:44;99945.92;;;11.34;72.73
3748;BME280;1889;50.058;8.688;2023-12-29T04:21:14;99942.16;;;11.27;73.12
3748;BME280;1889;50.058;8.688;2023-12-29T04:23:44;99936.64;;;11.36;73.26
3748;BME280;1889;50.058;8.688;2023-12-29T04:26:13;99929.80;;;11.46;72.79
3748;BME280;1889;50.058;8.688;2023-12-29T04:28:43;99932.25;;;11.54;72.72
3748;BME280;1889;50.058;8.688;2023-12-29T04:31:12;99928.03;;;11.65;72.34
3748;BME280;1889;50.058;8.688;2023-12-29T04:33:41;99929.70;;;11.51;71.79
3748;BME280;1889;50.058;8.688;2023-12-29T04:36:12;99930.95;;;11.53;72.62
3748;BME280;1889;50.058;8.688;2023-12-29T04:38:41;99936.53;;;11.23;72.90
3748;BME280;1889;50.058;8.688;2023-12-29T04:41:12;99936.41;;;11.09;73.95
3748;BME280;1889;50.058;8.688;2023-12-29T04:43:42;99942.00;;;11.14;74.27
3748;BME280;1889;50.058;8.688;2023-12-29T04:46:12;99946.59;;;11.25;73.84
3748;BME280;1889;50.058;8.688;2023-12-29T04:48:41;99958.70;;;11.32;73.60
3748;BME280;1889;50.058;8.688;2023-12-29T04:51:10;99966.91;;;11.37;73.52
3748;BME280;1889;50.058;8.688;2023-12-29T04:53:39;99972.00;;;11.45;73.40
3748;BME280;1889;50.058;8.688;2023-12-29T04:56:09;99974.16;;;11.47;73.33
3748;BME280;1889;50.058;8.688;2023-12-29T04:58:38;99972.00;;;11.45;73.27
3748;BME280;1889;50.058;8.688;2023-12-29T05:01:07;99971.41;;;11.34;73.64
3748;BME280;1889;50.058;8.688;2023-12-29T05:03:37;99970.38;;;11.39;73.62
3748;BME280;1889;50.058;8.688;2023-12-29T05:06:06;99978.52;;;11.48;73.36
3748;BME280;1889;50.058;8.688;2023-12-29T05:08:35;99972.66;;;11.35;73.95
3748;BME280;1889;50.058;8.688;2023-12-29T05:11:05;99967.33;;;11.38;73.87
3748;BME280;1889;50.058;8.688;2023-12-29T05:13:34;99968.56;;;11.43;73.96
3748;BME280;1889;50.058;8.688;2023-12-29T05:16:03;99969.63;;;11.52;73.89
3748;BME280;1889;50.058;8.688;2023-12-29T05:18:33;99971.14;;;11.62;73.36
3748;BME280;1889;50.058;8.688;2023-12-29T05:21:02;99966.48;;;11.36;73.72
3748;BME280;1889;50.058;8.688;2023-12-29T05:23:31;99969.78;;;11.46;73.75
3748;BME280;1889;50.058;8.688;2023-12-29T05:26:01;99955.02;;;11.39;74.43
3748;BME280;1889;50.058;8.688;2023-12-29T05:28:30;99942.18;;;11.61;73.65
3748;BME280;1889;50.058;8.688;2023-12-29T05:30:59;99943.84;;;11.47;73.92
3748;BME280;1889;50.058;8.688;2023-12-29T05:33:31;99953.23;;;11.41;73.71
3748;BME280;1889;50.058;8.688;2023-12-29T05:36:05;99960.53;;;11.28;74.13
3748;BME280;1889;50.058;8.688;2023-12-29T05:38:37;99967.78;;;11.38;73.92
3748;BME280;1889;50.058;8.688;2023-12-29T05:41:07;99967.69;;;11.23;74.00
3748;BME280;1889;50.058;8.688;2023-12-29T05:43:36;99963.11;;;11.31;74.24
3748;BME280;1889;50.058;8.688;2023-12-29T05:46:12;99967.62;;;11.44;73.15
3748;BME280;1889;50.058;8.688;2023-12-29T05:48:41;99955.77;;;11.44;72.54
3748;BME280;1889;50.058;8.688;2023-12-29T05:51:12;99949.59;;;11.45;72.71
3748;BME280;1889;50.058;8.688;2023-12-29T05:53:41;99945.73;;;11.42;72.62
3748;BME280;1889;50.058;8.688;2023-12-29T05:56:13;99946.79;;;11.35;72.52
3748;BME280;1889;50.058;8.688;2023-12-29T05:58:42;99942.98;;;11.27;72.49
3748;BME280;1889;50.058;8.688;2023-12-29T06:01:12;99945.63;;;11.27;73.19
3748;BME280;1889;50.058;8.688;2023-12-29T06:03:41;99933.81;;;11.43;72.56
3748;BME280;1889;50.058;8.688;2023-12-29T06:06:10;99934.05;;;11.52;72.29
3748;BME280;1889;50.058;8.688;2023-12-29T06:08:40;99943.45;;;11.44;71.79
3748;BME280;1889;50.058;8.688;2023-12-29T06:11:14;99929.52;;;11.59;72.06
3748;BME280;1889;50.058;8.688;2023-12-29T06:13:40;99935.66;;;11.59;71.86
3748;BME280;1889;50.058;8.688;2023-12-29T06:16:09;99933.98;;;11.55;72.05
3748;BME280;1889;50.058;8.688;2023-12-29T06:18:38;99937.55;;;11.70;71.63
3748;BME280;1889;50.058;8.688;2023-12-29T06:21:08;99936.30;;;11.51;71.96
3748;BME280;1889;50.058;8.688;2023-12-29T06:23:37;99932.47;;;11.45;72.22
3748;BME280;1889;50.058;8.688;2023-12-29T06:26:18;99937.13;;;11.69;71.67
3748;BME280;1889;50.058;8.688;2023-12-29T06:28:39;99935.30;;;11.73;71.63
3748;BME280;1889;50.058;8.688;2023-12-29T06:31:08;99938.42;;;11.71;71.94
3748;BME280;1889;50.058;8.688;2023-12-29T06:33:44;99936.91;;;11.80;71.85
3748;BME280;1889;50.058;8.688;2023-12-29T06:36:14;99940.37;;;11.82;71.86
3748;BME280;1889;50.058;8.688;2023-12-29T06:38:43;99951.66;;;11.87;71.74
3748;BME280;1889;50.058;8.688;2023-12-29T06:41:14;99943.62;;;11.74;72.49
3748;BME280;1889;50.058;8.688;2023-12-29T06:43:43;99953.05;;;11.66;72.84
3748;BME280;1889;50.058;8.688;2023-12-29T06:46:13;99950.15;;;11.77;72.83
3748;BME280;1889;50.058;8.688;2023-12-29T06:48:43;99960.63;;;11.80;72.65
3748;BME280;1889;50.058;8.688;2023-12-29T06:51:17;99973.97;;;11.92;72.38
3748;BME280;1889;50.058;8.688;2023-12-29T06:53:47;99971.13;;;11.99;72.35
3748;BME280;1889;50.058;8.688;2023-12-29T06:56:16;99961.18;;;12.09;72.08
3748;BME280;1889;50.058;8.688;2023-12-29T06:58:46;99968.05;;;12.00;72.38
3748;BME280;1889;50.058;8.688;2023-12-29T07:01:16;99968.08;;;11.98;72.18
3748;BME280;1889;50.058;8.688;2023-12-29T07:03:45;99962.19;;;12.05;72.55
3748;BME280;1889;50.058;8.688;2023-12-29T07:06:14;99967.39;;;12.24;72.12
3748;BME280;1889;50.058;8.688;2023-12-29T07:08:43;99966.24;;;12.00;72.17
3748;BME280;1889;50.058;8.688;2023-12-29T07:11:13;99958.84;;;11.98;72.84
3748;BME280;1889;50.058;8.688;2023-12-29T07:13:42;99961.28;;;12.06;72.67
3748;BME280;1889;50.058;8.688;2023-12-29T07:16:11;99960.66;;;12.29;72.13
3748;BME280;1889;50.058;8.688;2023-12-29T07:18:41;99955.45;;;12.26;71.89
3748;BME280;1889;50.058;8.688;2023-12-29T07:21:10;99956.73;;;12.11;72.34
3748;BME280;1889;50.058;8.688;2023-12-29T07:23:40;99960.80;;;12.08;72.96
3748;BME280;1889;50.058;8.688;2023-12-29T07:26:10;99967.62;;;11.99;73.33
3748;BME280;1889;50.058;8.688;2023-12-29T07:28:39;99964.13;;;11.98;73.86
3748;BME280;1889;50.058;8.688;2023-12-29T07:31:08;99965.51;;;11.95;73.92
3748;BME280;1889;50.058;8.688;2023-12-29T07:33:38;99966.96;;;11.91;74.20
3748;BME280;1889;50.058;8.688;2023-12-29T07:36:07;99965.80;;;12.17;73.57
3748;BME280;1889;50.058;8.688;2023-12-29T07:38:37;99961.84;;;12.01;73.37
3748;BME280;1889;50.058;8.688;2023-12-29T07:41:06;99958.66;;;11.88;74.16
3748;BME280;1889;50.058;8.688;2023-12-29T07:43:36;99954.23;;;12.06;74.03
3748;BME280;1889;50.058;8.688;2023-12-29T07:46:05;99954.44;;;11.99;73.98
3748;BME280;1889;50.058;8.688;2023-12-29T07:48:34;99964.45;;;12.18;73.27
3748;BME280;1889;50.058;8.688;2023-12-29T07:51:05;99955.11;;;12.23;73.34
3748;BME280;1889;50.058;8.688;2023-12-29T07:53:35;99961.91;;;12.32;72.87
3748;BME280;1889;50.058;8.688;2023-12-29T07:56:04;99965.59;;;12.24;72.46
3748;BME280;1889;50.058;8.688;2023-12-29T07:58:34;99966.98;;;12.23;72.90
3748;BME280;1889;50.058;8.688;2023-12-29T08:01:03;99967.05;;;12.36;72.41
3748;BME280;1889;50.058;8.688;2023-12-29T08:03:32;99960.72;;;12.42;72.01
3748;BME280;1889;50.058;8.688;2023-12-29T08:06:02;99959.97;;;12.22;72.37
3748;BME280;1889;50.058;8.688;2023-12-29T08:08:31;99963.78;;;12.27;72.69
3748;BME280;1889;50.058;8.688;2023-12-29T08:11:00;99971.59;;;12.47;72.22
3748;BME280;1889;50.058;8.688;2023-12-29T08:13:30;99964.13;;;12.31;72.20
3748;BME280;1889;50.058;8.688;2023-12-29T08:15:59;99960.73;;;12.26;71.82
3748;BME280;1889;50.058;8.688;2023-12-29T08:18:28;99967.22;;;12.14;72.59
3748;BME280;1889;50.058;8.688;2023-12-29T08:20:58;99970.34;;;12.28;72.49
3748;BME280;1889;50.058;8.688;2023-12-29T08:23:28;99974.23;;;12.31;72.10
3748;BME280;1889;50.058;8.688;2023-12-29T08:25:57;99973.64;;;12.20;72.37
3748;BME280;1889;50.058;8.688;2023-12-29T08:28:27;99974.58;;;12.17;72.76
3748;BME280;1889;50.058;8.688;2023-12-29T08:30:56;99966.35;;;12.30;72.40
3748;BME280;1889;50.058;8.688;2023-12-29T08:33:25;99973.81;;;12.30;72.36
3748;BME280;1889;50.058;8.688;2023-12-29T08:35:55;99975.69;;;12.41;71.73
3748;BME280;1889;50.058;8.688;2023-12-29T08:38:31;99981.35;;;12.28;71.85
3748;BME280;1889;50.058;8.688;2023-12-29T08:40:56;99977.32;;;12.14;72.39
3748;BME280;1889;50.058;8.688;2023-12-29T08:43:26;99977.19;;;12.35;72.14
3748;BME280;1889;50.058;8.688;2023-12-29T08:45:56;99972.58;;;12.58;71.41
3748;BME280;1889;50.058;8.688;2023-12-29T08:48:25;99977.77;;;12.46;71.30
3748;BME280;1889;50.058;8.688;2023-12-29T08:50:54;99974.88;;;12.55;70.93
3748;BME280;1889;50.058;8.688;2023-12-29T08:53:24;99975.02;;;12.49;71.09
3748;BME280;1889;50.058;8.688;2023-12-29T08:55:53;99983.16;;;12.26;70.75
3748;BME280;1889;50.058;8.688;2023-12-29T08:58:22;99983.16;;;12.26;70.75
3748;BME280;1889;50.058;8.688;2023-12-29T09:00:52;99974.79;;;12.26;71.61
3748;BME280;1889;50.058;8.688;2023-12-29T09:03:21;99978.84;;;12.39;71.29
3748;BME280;1889;50.058;8.688;2023-12-29T09:05:50;99973.62;;;12.52;70.09
3748;BME280;1889;50.058;8.688;2023-12-29T09:08:20;99965.76;;;12.66;70.22
3748;BME280;1889;50.058;8.688;2023-12-29T09:10:49;99954.78;;;12.81;69.83
3748;BME280;1889;50.058;8.688;2023-12-29T09:13:18;99971.34;;;12.40;70.61
3748;BME280;1889;50.058;8.688;2023-12-29T09:15:49;99978.87;;;12.54;70.42
3748;BME280;1889;50.058;8.688;2023-12-29T09:18:18;99974.78;;;12.73;70.12
3748;BME280;1889;50.058;8.688;2023-12-29T09:20:48;99966.44;;;12.57;69.31
3748;BME280;1889;50.058;8.688;2023-12-29T09:23:17;99975.98;;;12.63;69.79
3748;BME280;1889;50.058;8.688;2023-12-29T09:25:46;99968.81;;;12.67;69.37
3748;BME280;1889;50.058;8.688;2023-12-29T09:28:16;99968.81;;;12.67;69.37
3748;BME280;1889;50.058;8.688;2023-12-29T09:30:45;99978.40;;;12.85;69.31
3748;BME280;1889;50.058;8.688;2023-12-29T09:33:16;99968.47;;;12.93;69.01
3748;BME280;1889;50.058;8.688;2023-12-29T09:35:45;99960.73;;;12.87;68.35
3748;BME280;1889;50.058;8.688;2023-12-29T09:38:15;99970.48;;;12.85;69.26
3748;BME280;1889;50.058;8.688;2023-12-29T09:40:45;99969.05;;;12.74;68.85
3748;BME280;1889;50.058;8.688;2023-12-29T09:43:15;99971.41;;;12.53;69.53
3748;BME280;1889;50.058;8.688;2023-12-29T09:45:46;99972.00;;;12.48;70.17
3748;BME280;1889;50.058;8.688;2023-12-29T09:48:17;99965.52;;;12.58;69.82
3748;BME280;1889;50.058;8.688;2023-12-29T09:50:50;99965.52;;;12.58;69.82
3748;BME280;1889;50.058;8.688;2023-12-29T09:53:21;99964.85;;;12.67;69.87
3748;BME280;1889;50.058;8.688;2023-12-29T09:55:51;99964.85;;;12.67;69.87
3748;BME280;1889;50.058;8.688;2023-12-29T09:58:22;99960.78;;;12.86;69.55
3748;BME280;1889;50.058;8.688;2023-12-29T10:00:53;99959.50;;;12.70;69.54
3748;BME280;1889;50.058;8.688;2023-12-29T10:03:22;99956.81;;;12.71;69.77
3748;BME280;1889;50.058;8.688;2023-12-29T10:05:54;99955.95;;;12.71;70.01
3748;BME280;1889;50.058;8.688;2023-12-29T10:08:25;99953.16;;;12.60;70.62
3748;BME280;1889;50.058;8.688;2023-12-29T10:10:58;99956.41;;;12.85;70.16
3748;BME280;1889;50.058;8.688;2023-12-29T10:13:30;99955.77;;;12.77;70.22
3748;BME280;1889;50.058;8.688;2023-12-29T10:16:08;99956.44;;;12.69;70.60
3748;BME280;1889;50.058;8.688;2023-12-29T10:18:42;99956.86;;;12.70;70.87
3748;BME280;1889;50.058;8.688;2023-12-29T10:21:17;99943.05;;;12.75;70.94
3748;BME280;1889;50.058;8.688;2023-12-29T10:23:56;99947.87;;;12.75;71.28
3748;BME280;1889;50.058;8.688;2023-12-29T10:26:22;99948.86;;;12.73;71.20
3748;BME280;1889;50.058;8.688;2023-12-29T10:28:52;99943.47;;;12.76;71.63
3748;BME280;1889;50.058;8.688;2023-12-29T10:31:23;99948.70;;;12.77;71.52
3748;BME280;1889;50.058;8.688;2023-12-29T10:33:52;99937.05;;;12.70;71.77
3748;BME280;1889;50.058;8.688;2023-12-29T10:36:23;99946.94;;;12.78;71.61
3748;BME280;1889;50.058;8.688;2023-12-29T10:39:06;99934.17;;;12.92;71.11
3748;BME280;1889;50.058;8.688;2023-12-29T10:41:36;99951.16;;;12.69;71.92
3748;BME280;1889;50.058;8.688;2023-12-29T10:44:07;99951.16;;;12.69;71.92
3748;BME280;1889;50.058;8.688;2023-12-29T10:46:36;99961.53;;;12.75;72.09
3748;BME280;1889;50.058;8.688;2023-12-29T10:49:13;99956.14;;;12.79;72.04
3748;BME280;1889;50.058;8.688;2023-12-29T10:51:42;99967.83;;;12.71;72.22
3748;BME280;1889;50.058;8.688;2023-12-29T10:54:19;99962.55;;;12.71;72.40
3748;BME280;1889;50.058;8.688;2023-12-29T10:57:03;99962.55;;;12.71;72.40
3748;BME280;1889;50.058;8.688;2023-12-29T10:59:32;99971.84;;;12.84;72.00
3748;BME280;1889;50.058;8.688;2023-12-29T11:02:02;99977.64;;;12.66;72.80
3748;BME280;1889;50.058;8.688;2023-12-29T11:04:32;99971.56;;;12.64;72.69
3748;BME280;1889;50.058;8.688;2023-12-29T11:07:03;99966.17;;;12.67;72.97
3748;BME280;1889;50.058;8.688;2023-12-29T11:09:33;99972.33;;;12.67;72.95
3748;BME280;1889;50.058;8.688;2023-12-29T11:12:04;99983.90;;;12.63;72.61
3748;BME280;1889;50.058;8.688;2023-12-29T11:14:35;99972.66;;;12.71;72.18
3748;BME280;1889;50.058;8.688;2023-12-29T11:17:05;99971.45;;;12.67;72.32
3748;BME280;1889;50.058;8.688;2023-12-29T11:19:37;99971.45;;;12.67;72.32
3748;BME280;1889;50.058;8.688;2023-12-29T11:22:08;99962.44;;;12.74;72.24
3748;BME280;1889;50.058;8.688;2023-12-29T11:24:38;99962.89;;;12.58;72.33
3748;BME280;1889;50.058;8.688;2023-12-29T11:27:08;99949.58;;;12.63;72.42
3748;BME280;1889;50.058;8.688;2023-12-29T11:29:41;99958.55;;;12.72;72.14
3748;BME280;1889;50.058;8.688;2023-12-29T11:32:17;99958.55;;;12.72;72.14
3748;BME280;1889;50.058;8.688;2023-12-29T11:34:56;99972.74;;;12.83;71.41
3748;BME280;1889;50.058;8.688;2023-12-29T11:37:51;99966.81;;;12.89;71.08
3748;BME280;1889;50.058;8.688;2023-12-29T11:40:36;99956.89;;;12.97;70.78
3748;BME280;1889;50.058;8.688;2023-12-29T11:43:03;99968.52;;;12.92;70.24
3748;BME280;1889;50.058;8.688;2023-12-29T11:45:34;99968.32;;;12.98;70.37
3748;BME280;1889;50.058;8.688;2023-12-29T11:48:04;99963.56;;;12.96;70.19
3748;BME280;1889;50.058;8.688;2023-12-29T11:50:35;99961.61;;;12.88;70.32
3748;BME280;1889;50.058;8.688;2023-12-29T11:53:07;99959.65;;;12.80;70.34
3748;BME280;1889;50.058;8.688;2023-12-29T11:55:39;99957.34;;;12.68;70.75
3748;BME280;1889;50.058;8.688;2023-12-29T11:58:25;99957.57;;;12.89;70.78
3748;BME280;1889;50.058;8.688;2023-12-29T12:00:56;99943.12;;;12.88;70.55
3748;BME280;1889;50.058;8.688;2023-12-29T12:03:28;99943.12;;;12.88;70.55
3748;BME280;1889;50.058;8.688;2023-12-29T12:05:57;99943.91;;;12.90;70.41
3748;BME280;1889;50.058;8.688;2023-12-29T12:08:30;99934.13;;;12.93;70.56
3748;BME280;1889;50.058;8.688;2023-12-29T12:11:48;99929.11;;;12.99;70.27
3748;BME280;1889;50.058;8.688;2023-12-29T12:13:42;99925.24;;;12.81;70.40
3748;BME280;1889;50.058;8.688;2023-12-29T12:19:14;99913.45;;;12.93;70.65
3748;BME280;1889;50.058;8.688;2023-12-29T12:21:47;99908.37;;;12.87;71.04
3748;BME280;1889;50.058;8.688;2023-12-29T12:24:20;99912.41;;;12.84;70.97
3748;BME280;1889;50.058;8.688;2023-12-29T12:26:49;99905.80;;;12.84;71.49
3748;BME280;1889;50.058;8.688;2023-12-29T12:29:18;99908.95;;;12.96;71.01
3748;BME280;1889;50.058;8.688;2023-12-29T12:31:55;99902.47;;;12.92;71.09
3748;BME280;1889;50.058;8.688;2023-12-29T12:34:24;99885.44;;;13.02;70.83
3748;BME280;1889;50.058;8.688;2023-12-29T12:36:54;99885.44;;;13.02;70.83
3748;BME280;1889;50.058;8.688;2023-12-29T12:39:24;99883.95;;;13.07;70.36
3748;BME280;1889;50.058;8.688;2023-12-29T12:41:55;99872.63;;;13.03;70.27
3748;BME280;1889;50.058;8.688;2023-12-29T12:44:24;99877.42;;;13.05;70.08
3748;BME280;1889;50.058;8.688;2023-12-29T12:46:57;99859.63;;;13.10;70.29
3748;BME280;1889;50.058;8.688;2023-12-29T12:49:29;99875.23;;;13.19;69.70
3748;BME280;1889;50.058;8.688;2023-12-29T12:51:59;99876.85;;;13.09;70.03
3748;BME280;1889;50.058;8.688;2023-12-29T12:54:28;99876.85;;;13.09;70.03
3748;BME280;1889;50.058;8.688;2023-12-29T12:56:58;99880.92;;;13.20;70.02
3748;BME280;1889;50.058;8.688;2023-12-29T12:59:28;99883.00;;;13.09;69.17
3748;BME280;1889;50.058;8.688;2023-12-29T13:01:57;99871.39;;;13.15;69.68
3748;BME280;1889;50.058;8.688;2023-12-29T13:04:27;99871.39;;;13.15;69.68
3748;BME280;1889;50.058;8.688;2023-12-29T13:06:56;99878.08;;;13.26;69.21
3748;BME280;1889;50.058;8.688;2023-12-29T13:09:26;99877.37;;;13.34;68.75
3748;BME280;1889;50.058;8.688;2023-12-29T13:12:11;99880.72;;;13.26;68.87
3748;BME280;1889;50.058;8.688;2023-12-29T13:14:41;99868.21;;;13.18;69.09
3748;BME280;1889;50.058;8.688;2023-12-29T13:17:12;99871.89;;;12.98;69.43
3748;BME280;1889;50.058;8.688;2023-12-29T13:19:42;99877.13;;;13.14;69.34
3748;BME280;1889;50.058;8.688;2023-12-29T13:22:12;99869.12;;;13.17;69.47
3748;BME280;1889;50.058;8.688;2023-12-29T13:24:45;99875.56;;;13.22;68.70
3748;BME280;1889;50.058;8.688;2023-12-29T13:27:15;99883.77;;;13.27;68.77
3748;BME280;1889;50.058;8.688;2023-12-29T13:29:44;99878.19;;;13.36;68.40
3748;BME280;1889;50.058;8.688;2023-12-29T13:32:23;99869.27;;;13.39;68.37
3748;BME280;1889;50.058;8.688;2023-12-29T13:35:11;99882.48;;;13.39;68.29
3748;BME280;1889;50.058;8.688;2023-12-29T13:37:43;99882.48;;;13.39;68.29
3748;BME280;1889;50.058;8.688;2023-12-29T13:42:49;99865.98;;;13.19;69.37
3748;BME280;1889;50.058;8.688;2023-12-29T13:45:20;99861.11;;;13.20;69.60